createdAt,value
2023-05-06T00:00:16.696Z,97901.00
2023-05-06T00:04:18.119Z,97897.00
2023-05-06T00:08:20.000Z,97889.00
2023-05-06T00:12:21.106Z,97884.00
2023-05-06T00:16:22.809Z,97888.00
2023-05-06T00:20:24.135Z,97886.00
2023-05-06T00:24:25.311Z,97897.00
2023-05-06T00:28:26.394Z,97886.00
2023-05-06T00:32:27.421Z,97874.00
2023-05-06T00:36:28.439Z,97869.00
2023-05-06T00:40:29.536Z,97870.00
2023-05-06T00:44:31.446Z,97874.00
2023-05-06T00:48:32.546Z,97869.00
2023-05-06T00:52:33.734Z,97901.00
2023-05-06T00:56:35.431Z,97875.00
2023-05-06T01:00:37.018Z,97876.00
2023-05-06T01:04:38.186Z,97877.00
2023-05-06T01:08:45.607Z,97864.00
2023-05-06T01:13:11.197Z,97868.00
2023-05-06T01:17:14.485Z,97860.00
2023-05-06T01:21:18.211Z,97855.00
2023-05-06T01:25:22.877Z,97859.00
2023-05-06T01:29:23.965Z,97862.00
2023-05-06T01:33:41.037Z,97854.00
2023-05-06T01:38:00.923Z,97850.00
2023-05-06T01:42:03.113Z,97845.00
2023-05-06T01:46:06.474Z,97857.00
2023-05-06T01:50:08.623Z,97858.00
2023-05-06T01:54:09.791Z,97857.00
2023-05-06T01:58:11.012Z,97870.00
2023-05-06T02:02:11.930Z,97865.00
2023-05-06T02:06:12.878Z,97868.00
2023-05-06T02:10:13.817Z,97884.00
2023-05-06T02:14:14.908Z,97881.00
2023-05-06T02:18:15.853Z,97864.00
2023-05-06T02:22:16.983Z,97874.00
2023-05-06T02:26:18.115Z,97873.00
2023-05-06T02:30:19.372Z,97863.00
2023-05-06T02:34:20.848Z,97873.00
2023-05-06T02:38:22.328Z,97874.00
2023-05-06T02:42:23.524Z,97871.00
2023-05-06T02:46:24.688Z,97866.00
2023-05-06T02:50:26.088Z,97872.00
2023-05-06T02:54:27.198Z,97868.00
2023-05-06T02:58:28.793Z,97883.00
2023-05-06T03:02:30.048Z,97883.00
2023-05-06T03:06:31.163Z,97890.00
2023-05-06T03:10:32.359Z,97884.00
2023-05-06T03:14:33.481Z,97888.00
2023-05-06T03:18:34.528Z,97890.00
2023-05-06T03:22:35.740Z,97887.00
2023-05-06T03:26:37.020Z,97890.00
2023-05-06T03:30:38.368Z,97889.00
2023-05-06T03:34:39.417Z,97881.00
2023-05-06T03:38:41.144Z,97898.00
2023-05-06T03:42:42.358Z,97671.00
2023-05-06T03:46:43.465Z,97880.00
2023-05-06T03:50:45.039Z,97879.00
2023-05-06T03:54:46.137Z,97894.00
2023-05-06T03:58:47.130Z,97888.00
2023-05-06T04:02:48.378Z,97887.00
2023-05-06T04:06:49.350Z,97894.00
2023-05-06T04:10:50.578Z,97885.00
2023-05-06T04:14:51.694Z,97884.00
2023-05-06T04:18:52.707Z,97892.00
2023-05-06T04:22:53.679Z,97892.00
2023-05-06T04:26:55.477Z,97890.00
2023-05-06T04:30:56.482Z,97896.00
2023-05-06T04:34:57.605Z,97897.00
2023-05-06T04:38:58.748Z,97907.00
2023-05-06T04:42:59.735Z,97903.00
2023-05-06T04:47:00.998Z,97901.00
2023-05-06T04:51:04.383Z,97898.00
2023-05-06T04:55:05.701Z,97905.00
2023-05-06T04:59:07.114Z,97908.00
2023-05-06T05:03:08.301Z,97915.00
2023-05-06T05:07:09.453Z,97925.00
2023-05-06T05:11:10.459Z,97928.00
2023-05-06T05:15:12.206Z,97934.00
2023-05-06T05:19:13.332Z,97931.00
2023-05-06T05:23:14.471Z,97929.00
2023-05-06T05:27:15.574Z,97932.00
2023-05-06T05:31:16.620Z,97933.00
2023-05-06T05:35:17.613Z,97931.00
2023-05-06T05:39:18.721Z,97931.00
2023-05-06T05:43:21.349Z,97956.00
2023-05-06T05:47:22.527Z,97938.00
2023-05-06T05:51:23.810Z,97940.00
2023-05-06T05:55:25.771Z,97945.00
2023-05-06T05:59:28.253Z,97940.00
2023-05-06T06:03:29.447Z,97941.00
2023-05-06T06:07:30.838Z,97941.00
2023-05-06T06:11:31.971Z,97943.00
2023-05-06T06:15:33.037Z,97944.00
2023-05-06T06:19:34.182Z,97942.00
2023-05-06T06:23:35.180Z,97945.00
2023-05-06T06:27:36.296Z,97953.00
2023-05-06T06:31:39.715Z,97951.00
2023-05-06T06:35:40.273Z,97963.00
2023-05-06T06:39:41.231Z,97961.00
2023-05-06T06:43:42.353Z,97968.00
2023-05-06T06:47:43.676Z,97970.00
2023-05-06T06:51:44.621Z,97961.00
2023-05-06T06:55:45.601Z,97970.00
2023-05-06T06:59:47.014Z,97986.00
2023-05-06T07:03:47.961Z,97966.00
2023-05-06T07:07:49.046Z,97971.00
2023-05-06T07:11:50.000Z,97979.00
2023-05-06T07:15:51.105Z,97972.00
2023-05-06T07:19:52.066Z,97972.00
2023-05-06T07:23:53.367Z,97977.00
2023-05-06T07:27:54.461Z,97969.00
2023-05-06T07:31:55.648Z,97973.00
2023-05-06T07:35:56.610Z,97982.00
2023-05-06T07:39:58.030Z,97982.00
2023-05-06T07:43:58.996Z,97987.00
2023-05-06T07:48:00.116Z,97984.00
2023-05-06T07:52:02.938Z,97998.00
2023-05-06T07:56:04.158Z,97985.00
2023-05-06T08:00:06.221Z,97987.00
2023-05-06T08:04:07.227Z,97986.00
2023-05-06T08:08:08.276Z,97988.00
2023-05-06T08:12:09.521Z,97978.00
2023-05-06T08:16:10.763Z,97994.00
2023-05-06T08:20:13.068Z,97992.00
2023-05-06T08:24:14.556Z,97999.00
2023-05-06T08:28:15.630Z,97995.00
2023-05-06T08:32:16.715Z,97993.00
2023-05-06T08:36:17.787Z,98012.00
2023-05-06T08:40:21.348Z,97999.00
2023-05-06T08:44:24.221Z,98010.00
2023-05-06T08:48:25.263Z,98003.00
2023-05-06T08:52:27.161Z,98008.00
2023-05-06T08:56:30.407Z,98007.00
2023-05-06T09:00:32.284Z,98010.00
2023-05-06T09:04:33.744Z,98008.00
2023-05-06T09:08:35.504Z,98013.00
2023-05-06T09:12:37.367Z,98021.00
2023-05-06T09:16:40.913Z,98025.00
2023-05-06T09:20:44.479Z,98011.00
2023-05-06T09:24:45.622Z,98027.00
2023-05-06T09:28:46.832Z,98001.00
2023-05-06T09:32:49.240Z,98013.00
2023-05-06T09:36:52.047Z,98006.00
2023-05-06T09:40:53.295Z,98002.00
2023-05-06T09:44:56.243Z,98005.00
2023-05-06T09:48:58.008Z,98006.00
2023-05-06T09:53:00.228Z,97999.00
2023-05-06T09:57:03.145Z,98000.00
2023-05-06T10:01:06.476Z,97986.00
2023-05-06T10:05:09.895Z,97990.00
2023-05-06T10:09:12.230Z,97993.00
2023-05-06T10:13:15.510Z,97991.00
2023-05-06T10:17:18.210Z,97992.00
2023-05-06T10:21:21.576Z,97995.00
2023-05-06T10:25:35.770Z,97986.00
2023-05-06T10:29:37.302Z,97990.00
2023-05-06T10:33:45.085Z,97983.00
2023-05-06T10:37:48.684Z,97981.00
2023-05-06T10:41:49.979Z,97981.00
2023-05-06T10:46:15.362Z,97973.00
2023-05-06T10:50:21.446Z,97973.00
2023-05-06T10:54:23.526Z,97964.00
2023-05-06T10:58:24.662Z,97973.00
2023-05-06T11:02:29.675Z,97971.00
2023-05-06T11:06:40.669Z,97967.00
2023-05-06T11:10:41.784Z,97962.00
2023-05-06T11:14:42.922Z,97961.00
2023-05-06T11:18:44.378Z,97960.00
